Terminal Aerodrome Forecast
Issued by NWS

Home | Current Version | Previous Version | Text Only | Print | Product List | Glossary On
Versions: 1 2 3 4 5 6 7 8 9 10 11 12 13 14
649
FTAK31 PAJN 271724
TAFAWG
TAF
PAWG 271724Z 2718/2818 28004KT P6SM BKN025 OVC040
     FM272200 29005KT P6SM VCSH BKN050
     FM280400 VRB03KT P6SM -SHRA BKN025 OVC040
     FM281600 VRB05KT P6SM VCSH SCT025 OVC040
      AMD LTD TO CLD VIS AND WIND 2806/2812=

USA.gov is the U.S. government's official web portal to all federal, state and local government web resources and services.